Accueil
METAR-TAF:

METAR-TAF

Aéroports :

Aéroport de Londres-Stansted

Londres-Stansted, Angleterre

latitude: 51-53N, longitude: 000-14E, altitude: 106 m

Observation

Le bulletin a été fait il y a 35 minutes, à 10:20 UTC
Vent 5 kt de nord-est, variant entre nord/nord-ouest et est
Température 10°C
Humidité 43%
Pression 1025 hPa
Visibilité 10 km ou plus

METAR: EGSS 181020Z AUTO 05005KT 340V100 9999 NCD 10/M02 Q1025

Heure: 11:55 (10:55 UTC)

Prévision

Le bulletin a été fait il y a 5 heures et 56 minutes, à 04:59 UTC
Prévision valable du 18 à 06 UTC au 19 à 12 UTC
Vent 3 kt de direction variable
Visibilité 10 km ou plus
pas de nuages en-dessous de 1500 mètres et pas de cumulonimbus.
Probabilité 30%
du 19 à 03 UTC au 19 à 08 UTC
Visibilité: 0300 m
brouillard

TAF: EGSS 180459Z 1806/1912 VRB03KT CAVOK PROB30 1903/1908 0300 FG VV///

Observations et prévisions météorologiques de plus de 4000 aéroports (messages METAR et TAF).

Les stations disponibles sont représentées par des disques jaunes et rouges sur la carte.

Passer la souris dessus pour voir le nom de la station.

Cliquer dessus pour voir les observations et prévisions météorologiques.

Pour changer de carte: cliquez sur les boutons verts avec une croix noire pour zoomer, sur le bouton vert avec un tiret pour effectuer un zoom arrière, ou sur les flèches vertes pour les cartes adjacentes.


METAR-TAF: